createdAt,value
2023-01-12T00:00:22.753Z,2.74
2023-01-12T00:01:26.022Z,2.71
2023-01-12T00:02:31.602Z,2.74
2023-01-12T00:03:34.717Z,2.76
2023-01-12T00:04:40.187Z,2.74
2023-01-12T00:05:45.584Z,2.68
2023-01-12T00:06:51.272Z,2.71
2023-01-12T00:07:53.527Z,2.64
2023-01-12T00:08:58.530Z,2.64
2023-01-12T00:10:03.315Z,2.58
2023-01-12T00:11:05.820Z,2.59
2023-01-12T00:12:16.964Z,2.53
2023-01-12T00:13:19.321Z,2.44
2023-01-12T00:14:24.414Z,2.41
2023-01-12T00:15:57.734Z,2.35
2023-01-12T00:17:03.210Z,2.36
2023-01-12T00:18:05.410Z,2.32
2023-01-12T00:19:15.636Z,2.29
2023-01-12T00:20:18.027Z,2.33
2023-01-12T00:21:25.631Z,2.31
2023-01-12T00:22:30.536Z,2.36
2023-01-12T00:23:32.540Z,2.30
2023-01-12T00:24:39.830Z,2.39
2023-01-12T00:25:42.261Z,2.33
2023-01-12T00:26:50.135Z,2.34
2023-01-12T00:27:55.113Z,2.42
2023-01-12T00:28:57.480Z,2.33
2023-01-12T00:30:02.777Z,2.33
2023-01-12T00:31:08.442Z,2.45
2023-01-12T00:32:16.844Z,2.52
2023-01-12T00:33:20.392Z,2.52
2023-01-12T00:34:27.403Z,2.51
2023-01-12T00:35:31.210Z,2.55
2023-01-12T00:36:39.433Z,2.54
2023-01-12T00:37:41.456Z,2.54
2023-01-12T00:38:47.033Z,2.54
2023-01-12T00:40:01.899Z,2.49
2023-01-12T00:41:05.897Z,2.50
2023-01-12T00:42:23.350Z,2.53
2023-01-12T00:43:41.754Z,2.52
2023-01-12T00:44:59.972Z,2.50
2023-01-12T00:46:05.942Z,2.49
2023-01-12T00:47:08.799Z,2.50
2023-01-12T00:48:15.924Z,2.54
2023-01-12T00:49:17.950Z,2.57
2023-01-12T00:50:22.718Z,2.68
2023-01-12T00:51:25.010Z,2.73
2023-01-12T00:52:33.096Z,2.75
2023-01-12T00:53:35.419Z,2.74
2023-01-12T00:54:41.931Z,2.75
2023-01-12T00:55:44.083Z,2.75
2023-01-12T00:56:49.088Z,2.81
2023-01-12T00:57:54.407Z,2.81
2023-01-12T00:58:57.116Z,2.77
2023-01-12T01:00:02.150Z,2.79
2023-01-12T01:01:06.661Z,2.83
2023-01-12T01:02:11.925Z,2.81
2023-01-12T01:03:14.137Z,2.86
2023-01-12T01:04:19.550Z,2.82
2023-01-12T01:05:22.389Z,2.85
2023-01-12T01:06:28.957Z,2.91
2023-01-12T01:07:35.001Z,2.94
2023-01-12T01:08:42.616Z,2.91
2023-01-12T01:09:44.691Z,2.97
2023-01-12T01:10:49.202Z,3.09
2023-01-12T01:11:51.652Z,3.10
2023-01-12T01:12:56.300Z,3.09
2023-01-12T01:13:59.287Z,3.11
2023-01-12T01:15:04.393Z,3.14
2023-01-12T01:16:08.335Z,3.14
2023-01-12T01:17:13.675Z,3.10
2023-01-12T01:18:15.973Z,3.06
2023-01-12T01:19:21.561Z,3.01
2023-01-12T01:20:24.369Z,2.99
2023-01-12T01:21:30.147Z,3.02
2023-01-12T01:22:35.272Z,3.03
2023-01-12T01:23:41.741Z,3.01
2023-01-12T01:24:47.538Z,2.98
2023-01-12T01:25:50.169Z,3.07
2023-01-12T01:26:54.733Z,3.05
2023-01-12T01:27:56.936Z,3.21
2023-01-12T01:29:01.823Z,3.20
2023-01-12T01:30:04.747Z,3.15
2023-01-12T01:31:12.128Z,3.09
2023-01-12T01:32:14.207Z,3.10
2023-01-12T01:33:18.758Z,3.07
2023-01-12T01:34:21.160Z,3.03
2023-01-12T01:35:26.271Z,3.04
2023-01-12T01:36:28.784Z,3.15
2023-01-12T01:37:34.330Z,3.18
2023-01-12T01:38:39.738Z,3.11
2023-01-12T01:39:44.767Z,3.05
2023-01-12T01:40:46.875Z,3.10
2023-01-12T01:41:51.514Z,3.09
2023-01-12T01:42:53.788Z,3.08
2023-01-12T01:44:01.699Z,3.10
2023-01-12T01:45:06.828Z,3.13
2023-01-12T01:46:17.946Z,3.12
2023-01-12T01:47:26.371Z,3.12
2023-01-12T01:48:34.513Z,3.07
2023-01-12T01:49:41.198Z,3.19
2023-01-12T01:50:52.465Z,3.16
2023-01-12T01:51:59.701Z,3.20
2023-01-12T01:53:08.362Z,3.17
2023-01-12T01:54:15.722Z,3.17
2023-01-12T01:55:25.109Z,3.34
2023-01-12T01:56:31.563Z,3.31
2023-01-12T01:57:43.406Z,3.24
2023-01-12T01:58:53.723Z,3.17
2023-01-12T02:00:00.726Z,3.16
2023-01-12T02:01:02.947Z,3.13
2023-01-12T02:02:08.472Z,3.11
2023-01-12T02:03:11.780Z,3.13
2023-01-12T02:04:17.392Z,3.13
2023-01-12T02:05:23.907Z,3.14
2023-01-12T02:06:32.199Z,3.12
2023-01-12T02:07:34.551Z,3.12
2023-01-12T02:08:48.893Z,3.14
2023-01-12T02:09:53.845Z,3.20
2023-01-12T02:11:01.115Z,3.20
2023-01-12T02:12:19.014Z,3.21
2023-01-12T02:13:36.304Z,3.28
2023-01-12T02:14:53.342Z,3.31
2023-01-12T02:16:23.849Z,3.30
2023-01-12T02:17:48.268Z,3.27
2023-01-12T02:19:04.815Z,3.21
2023-01-12T02:20:36.163Z,3.21
2023-01-12T02:22:17.325Z,3.18
2023-01-12T02:23:58.580Z,3.20
2023-01-12T02:25:22.407Z,3.17
2023-01-12T02:27:02.629Z,3.26
2023-01-12T02:28:29.297Z,3.22
2023-01-12T02:30:10.800Z,3.22
2023-01-12T02:31:46.270Z,3.26
2023-01-12T02:32:55.496Z,3.32
2023-01-12T02:34:11.429Z,3.34
2023-01-12T02:35:22.983Z,3.38
2023-01-12T02:36:31.536Z,3.38
2023-01-12T02:37:38.646Z,3.39
2023-01-12T02:38:53.156Z,3.46
2023-01-12T02:40:00.192Z,3.43
2023-01-12T02:41:13.044Z,3.43
2023-01-12T02:42:39.375Z,3.40
2023-01-12T02:43:42.852Z,3.43
2023-01-12T02:44:57.491Z,3.40
2023-01-12T02:46:05.244Z,3.43
2023-01-12T02:47:21.427Z,3.45
2023-01-12T02:48:27.825Z,3.45
2023-01-12T02:49:40.024Z,3.47
2023-01-12T02:50:48.382Z,3.44
2023-01-12T02:51:58.168Z,3.54
2023-01-12T02:53:11.384Z,3.49
2023-01-12T02:54:16.169Z,3.44
2023-01-12T02:55:22.352Z,3.39
2023-01-12T02:56:34.751Z,3.33
2023-01-12T02:57:38.026Z,3.37
2023-01-12T02:58:48.747Z,3.36
2023-01-12T02:59:52.869Z,3.32
2023-01-12T03:01:01.426Z,3.32
2023-01-12T03:02:07.901Z,3.41
2023-01-12T03:03:17.536Z,3.42
2023-01-12T03:04:20.950Z,3.45
2023-01-12T03:05:26.364Z,3.43
2023-01-12T03:06:42.464Z,3.41
2023-01-12T03:07:54.120Z,3.51
2023-01-12T03:08:56.543Z,3.49
2023-01-12T03:10:08.542Z,3.45
2023-01-12T03:11:17.355Z,3.55
2023-01-12T03:12:23.893Z,3.58
2023-01-12T03:13:32.569Z,3.55
2023-01-12T03:14:37.765Z,3.51
2023-01-12T03:15:45.130Z,3.45
2023-01-12T03:16:47.487Z,3.45
2023-01-12T03:18:02.979Z,3.47
2023-01-12T03:19:11.778Z,3.54
2023-01-12T03:20:24.644Z,3.57
2023-01-12T03:21:31.325Z,3.50
2023-01-12T03:22:39.052Z,3.49
2023-01-12T03:23:45.383Z,3.56
2023-01-12T03:24:53.844Z,3.57
2023-01-12T03:25:58.460Z,3.57
2023-01-12T03:27:07.104Z,3.60
2023-01-12T03:28:12.398Z,3.60
2023-01-12T03:29:22.597Z,3.54
2023-01-12T03:30:31.255Z,3.49
2023-01-12T03:31:37.518Z,3.53
2023-01-12T03:32:39.907Z,3.58
2023-01-12T03:33:47.384Z,3.64
2023-01-12T03:34:52.747Z,3.54
2023-01-12T03:36:06.277Z,3.57
2023-01-12T03:37:17.896Z,3.64
2023-01-12T03:38:23.899Z,3.70
2023-01-12T03:39:36.707Z,3.67
2023-01-12T03:40:44.154Z,3.65
2023-01-12T03:41:59.443Z,3.66
2023-01-12T03:43:07.228Z,3.72
2023-01-12T03:44:22.237Z,3.71
2023-01-12T03:45:30.938Z,3.79
2023-01-12T03:46:42.200Z,3.78
2023-01-12T03:47:44.666Z,3.76
2023-01-12T03:48:54.833Z,3.73
2023-01-12T03:50:04.450Z,3.71
2023-01-12T03:51:14.653Z,3.68
2023-01-12T03:52:21.154Z,3.76
2023-01-12T03:53:25.125Z,3.81
2023-01-12T03:54:32.210Z,3.80
2023-01-12T03:55:39.637Z,3.88
2023-01-12T03:56:44.977Z,3.94
2023-01-12T03:57:51.334Z,3.93
2023-01-12T03:58:53.680Z,3.95
2023-01-12T04:00:00.165Z,3.93
2023-01-12T04:01:02.625Z,3.92
2023-01-12T04:02:07.715Z,3.97
2023-01-12T04:03:12.449Z,4.07
2023-01-12T04:04:17.726Z,4.07
2023-01-12T04:05:22.820Z,4.10
2023-01-12T04:06:28.020Z,4.14
2023-01-12T04:07:30.663Z,4.12
2023-01-12T04:08:36.221Z,4.09
2023-01-12T04:09:38.550Z,4.09
2023-01-12T04:10:43.753Z,4.13
2023-01-12T04:12:00.838Z,4.12
2023-01-12T04:13:03.241Z,4.11
2023-01-12T04:14:08.333Z,4.06
2023-01-12T04:15:11.323Z,4.05
2023-01-12T04:16:16.801Z,4.04
2023-01-12T04:17:25.351Z,4.02
2023-01-12T04:18:27.517Z,4.02
2023-01-12T04:19:32.205Z,3.99
2023-01-12T04:20:37.127Z,3.95
2023-01-12T04:21:54.584Z,3.92
2023-01-12T04:22:59.194Z,3.88
2023-01-12T04:24:01.611Z,3.87
2023-01-12T04:25:09.543Z,3.84
2023-01-12T04:26:12.217Z,3.78
2023-01-12T04:27:17.734Z,3.83
2023-01-12T04:28:19.919Z,3.80
2023-01-12T04:29:25.033Z,3.79
2023-01-12T04:30:28.496Z,3.78
2023-01-12T04:31:33.724Z,3.74
2023-01-12T04:32:36.032Z,3.72
2023-01-12T04:33:40.771Z,3.74
2023-01-12T04:34:43.250Z,3.84
2023-01-12T04:35:51.589Z,3.85
2023-01-12T04:36:56.760Z,3.80
2023-01-12T04:37:58.987Z,3.76
2023-01-12T04:39:03.716Z,3.78
2023-01-12T04:40:07.809Z,3.81
2023-01-12T04:41:13.251Z,3.79
2023-01-12T04:42:30.295Z,3.83
2023-01-12T04:43:34.938Z,3.81
2023-01-12T04:44:37.010Z,3.92
2023-01-12T04:45:44.163Z,3.92
2023-01-12T04:46:46.396Z,4.00
2023-01-12T04:47:51.893Z,4.04
2023-01-12T04:48:54.190Z,3.97
2023-01-12T04:50:00.823Z,3.98
2023-01-12T04:51:08.971Z,3.98
2023-01-12T04:52:11.059Z,3.88
2023-01-12T04:53:17.713Z,3.86
2023-01-12T04:54:19.952Z,3.85
2023-01-12T04:55:24.517Z,3.87
2023-01-12T04:56:26.856Z,3.86
2023-01-12T04:57:31.891Z,3.78
2023-01-12T04:58:35.440Z,3.72
2023-01-12T04:59:40.964Z,3.71
2023-01-12T05:00:46.439Z,3.71
2023-01-12T05:01:48.842Z,3.74
2023-01-12T05:02:55.591Z,3.66
2023-01-12T05:04:02.966Z,3.62
2023-01-12T05:05:06.257Z,3.63
2023-01-12T05:06:15.078Z,3.61
2023-01-12T05:07:17.614Z,3.57
2023-01-12T05:08:34.632Z,3.58
2023-01-12T05:09:51.665Z,3.55
2023-01-12T05:10:58.306Z,3.52
2023-01-12T05:12:01.284Z,3.54
2023-01-12T05:13:06.586Z,3.53
2023-01-12T05:14:09.061Z,3.56
2023-01-12T05:15:14.824Z,3.51
2023-01-12T05:16:21.386Z,3.52
2023-01-12T05:17:23.619Z,3.49
2023-01-12T05:18:30.182Z,3.52
2023-01-12T05:19:36.374Z,3.50
2023-01-12T05:20:39.831Z,3.48
2023-01-12T05:21:48.028Z,3.46
2023-01-12T05:22:51.523Z,3.46
2023-01-12T05:23:56.831Z,3.50
2023-01-12T05:24:59.434Z,3.54
2023-01-12T05:26:05.371Z,3.61
2023-01-12T05:27:07.846Z,3.63
2023-01-12T05:28:12.748Z,3.67
2023-01-12T05:29:15.128Z,3.69
2023-01-12T05:30:22.046Z,3.73
2023-01-12T05:31:24.693Z,3.70
2023-01-12T05:32:29.803Z,3.76
2023-01-12T05:33:31.932Z,3.81
2023-01-12T05:34:36.731Z,3.80
2023-01-12T05:35:38.928Z,3.78
2023-01-12T05:36:46.761Z,3.77
2023-01-12T05:37:49.046Z,3.77
2023-01-12T05:38:54.552Z,3.85
2023-01-12T05:39:56.897Z,3.87
2023-01-12T05:41:02.829Z,3.90
2023-01-12T05:42:20.624Z,3.89
2023-01-12T05:43:37.781Z,3.90
2023-01-12T05:44:40.101Z,3.94
2023-01-12T05:45:44.811Z,3.90
2023-01-12T05:46:47.054Z,3.92
2023-01-12T05:48:00.608Z,3.96
2023-01-12T05:49:02.656Z,3.88
2023-01-12T05:50:08.352Z,3.90
2023-01-12T05:51:15.900Z,3.91
2023-01-12T05:52:21.455Z,3.87
2023-01-12T05:53:27.192Z,3.94
2023-01-12T05:54:29.840Z,3.96
2023-01-12T05:55:36.019Z,3.97
2023-01-12T05:56:38.351Z,4.04
2023-01-12T05:57:43.047Z,4.09
2023-01-12T05:58:49.568Z,4.10
2023-01-12T05:59:54.631Z,4.16
2023-01-12T06:00:56.854Z,4.19
2023-01-12T06:02:01.549Z,4.21
2023-01-12T06:03:03.828Z,4.22
2023-01-12T06:04:09.440Z,4.17
2023-01-12T06:05:11.789Z,4.21
2023-01-12T06:06:17.013Z,4.26
2023-01-12T06:07:21.813Z,4.28
2023-01-12T06:08:26.926Z,4.32
2023-01-12T06:09:29.292Z,4.32
2023-01-12T06:10:34.794Z,4.35
2023-01-12T06:11:51.944Z,4.36
2023-01-12T06:13:09.730Z,4.33
2023-01-12T06:14:12.036Z,4.33
2023-01-12T06:15:17.632Z,4.34
2023-01-12T06:16:20.274Z,4.33
2023-01-12T06:17:28.319Z,4.39
2023-01-12T06:18:33.447Z,4.37
2023-01-12T06:19:39.509Z,4.37
2023-01-12T06:20:41.651Z,4.39
2023-01-12T06:21:46.687Z,4.42
2023-01-12T06:22:51.818Z,4.44
2023-01-12T06:23:56.577Z,4.43
2023-01-12T06:24:58.675Z,4.38
2023-01-12T06:26:04.484Z,4.45
2023-01-12T06:27:06.574Z,4.39
2023-01-12T06:28:11.639Z,4.43
2023-01-12T06:29:14.242Z,4.41
2023-01-12T06:30:19.697Z,4.41
2023-01-12T06:31:22.113Z,4.50
2023-01-12T06:32:27.157Z,4.53
2023-01-12T06:33:29.653Z,4.46
2023-01-12T06:34:35.987Z,4.46
2023-01-12T06:35:38.284Z,4.43
2023-01-12T06:36:44.225Z,4.43
2023-01-12T06:37:46.273Z,4.44
2023-01-12T06:38:56.266Z,4.42
2023-01-12T06:39:58.475Z,4.47
2023-01-12T06:41:06.841Z,4.49
2023-01-12T06:42:24.139Z,4.46
2023-01-12T06:43:26.139Z,4.52
2023-01-12T06:44:31.698Z,4.52
2023-01-12T06:45:33.792Z,4.52
2023-01-12T06:46:39.897Z,4.51
2023-01-12T06:47:46.159Z,4.62
2023-01-12T06:48:51.907Z,4.59
2023-01-12T06:49:54.581Z,4.57
2023-01-12T06:51:05.369Z,4.55
2023-01-12T06:52:07.841Z,4.55
2023-01-12T06:53:12.869Z,4.44
2023-01-12T06:54:18.802Z,4.44
2023-01-12T06:55:24.296Z,4.50
2023-01-12T06:56:26.543Z,4.47
2023-01-12T06:57:31.280Z,4.45
2023-01-12T06:58:33.617Z,4.41
2023-01-12T06:59:42.381Z,4.40
2023-01-12T07:00:45.424Z,4.40
2023-01-12T07:01:50.849Z,4.41
2023-01-12T07:02:56.231Z,4.41
2023-01-12T07:03:58.303Z,4.48
2023-01-12T07:05:03.960Z,4.45
2023-01-12T07:06:06.967Z,4.49
2023-01-12T07:07:13.856Z,4.48
2023-01-12T07:08:19.632Z,4.52
2023-01-12T07:09:27.483Z,4.53
2023-01-12T07:10:29.725Z,4.49
2023-01-12T07:11:35.611Z,4.58
2023-01-12T07:12:38.036Z,4.55
2023-01-12T07:13:43.537Z,4.49
2023-01-12T07:14:46.076Z,4.47
2023-01-12T07:15:51.587Z,4.45
2023-01-12T07:16:54.091Z,4.45
2023-01-12T07:17:59.881Z,4.47
2023-01-12T07:19:02.238Z,4.43
2023-01-12T07:20:08.228Z,4.41
2023-01-12T07:21:14.328Z,4.47
2023-01-12T07:22:19.641Z,4.51
2023-01-12T07:23:22.008Z,4.51
2023-01-12T07:24:30.159Z,4.48
2023-01-12T07:25:32.676Z,4.51
2023-01-12T07:26:38.052Z,4.48
2023-01-12T07:27:43.327Z,4.48
2023-01-12T07:28:45.824Z,4.50
2023-01-12T07:29:51.723Z,4.54
2023-01-12T07:30:59.386Z,4.49
2023-01-12T07:32:04.650Z,4.51
2023-01-12T07:33:07.854Z,4.55
2023-01-12T07:34:15.668Z,4.56
2023-01-12T07:35:18.524Z,4.51
2023-01-12T07:36:26.111Z,4.50
2023-01-12T07:37:28.658Z,4.55
2023-01-12T07:38:34.789Z,4.60
2023-01-12T07:39:42.291Z,4.58
2023-01-12T07:40:47.639Z,4.61
2023-01-12T07:42:05.076Z,4.63
2023-01-12T07:43:13.871Z,4.65
2023-01-12T07:44:16.158Z,4.68
2023-01-12T07:45:23.806Z,4.62
2023-01-12T07:46:26.033Z,4.62
2023-01-12T07:47:32.364Z,4.67
2023-01-12T07:48:35.283Z,4.68
2023-01-12T07:49:40.583Z,4.72
2023-01-12T07:50:42.919Z,4.73
2023-01-12T07:51:48.084Z,4.74
2023-01-12T07:52:50.533Z,4.72
2023-01-12T07:53:55.437Z,4.77
2023-01-12T07:55:03.707Z,4.84
2023-01-12T07:56:06.415Z,4.82
2023-01-12T07:57:13.515Z,4.81
2023-01-12T07:58:21.484Z,4.85
2023-01-12T07:59:24.061Z,4.85
2023-01-12T08:00:30.810Z,4.82
2023-01-12T08:01:33.197Z,4.81
2023-01-12T08:02:38.876Z,4.77
2023-01-12T08:03:41.526Z,4.86
2023-01-12T08:04:46.879Z,4.96
2023-01-12T08:05:49.463Z,4.91
2023-01-12T08:06:55.527Z,4.94
2023-01-12T08:08:03.214Z,4.93
2023-01-12T08:09:06.161Z,4.88
2023-01-12T08:10:16.204Z,4.87
2023-01-12T08:11:23.234Z,4.89
2023-01-12T08:12:29.207Z,4.92
2023-01-12T08:13:31.879Z,4.88
2023-01-12T08:14:40.289Z,4.91
2023-01-12T08:15:46.484Z,4.96
2023-01-12T08:16:53.615Z,5.00
2023-01-12T08:18:03.859Z,5.00
2023-01-12T08:19:25.968Z,4.98
2023-01-12T08:20:35.614Z,5.02
2023-01-12T08:21:46.316Z,5.08
2023-01-12T08:22:56.031Z,5.11
2023-01-12T08:24:04.805Z,5.11
2023-01-12T08:25:18.068Z,5.12
2023-01-12T08:26:24.813Z,5.07
2023-01-12T08:27:35.545Z,5.07
2023-01-12T08:28:44.227Z,5.08
2023-01-12T08:29:54.765Z,5.13
2023-01-12T08:31:00.483Z,5.10
2023-01-12T08:32:06.150Z,5.16
2023-01-12T08:33:12.038Z,5.20
2023-01-12T08:34:17.451Z,5.18
2023-01-12T08:35:27.503Z,5.19
2023-01-12T08:36:32.953Z,5.23
2023-01-12T08:37:39.828Z,5.22
2023-01-12T08:38:45.523Z,5.26
2023-01-12T08:39:51.373Z,5.25
2023-01-12T08:41:11.983Z,5.33
2023-01-12T08:42:19.683Z,5.39
2023-01-12T08:43:39.705Z,5.41
2023-01-12T08:44:45.239Z,5.45
2023-01-12T08:45:48.000Z,5.50
2023-01-12T08:46:55.424Z,5.50
2023-01-12T08:47:57.971Z,5.49
2023-01-12T08:49:03.687Z,5.50
2023-01-12T08:50:16.178Z,5.55
2023-01-12T08:51:18.618Z,5.52
2023-01-12T08:52:26.153Z,5.56
2023-01-12T08:53:28.370Z,5.59
2023-01-12T08:54:34.995Z,5.58
2023-01-12T08:55:37.534Z,5.61
2023-01-12T08:56:49.467Z,5.65
2023-01-12T08:57:51.874Z,5.71
2023-01-12T08:58:57.415Z,5.73
2023-01-12T09:00:02.671Z,5.72
2023-01-12T09:01:09.825Z,5.76
2023-01-12T09:02:15.883Z,5.77
2023-01-12T09:03:18.159Z,5.75
2023-01-12T09:04:24.667Z,5.75
2023-01-12T09:05:27.528Z,5.81
2023-01-12T09:06:35.941Z,5.84
2023-01-12T09:07:43.726Z,5.88
2023-01-12T09:08:47.066Z,5.88
2023-01-12T09:09:52.726Z,5.83
2023-01-12T09:11:02.874Z,5.80
2023-01-12T09:12:11.689Z,5.79
2023-01-12T09:13:15.994Z,5.78
2023-01-12T09:14:22.767Z,5.78
2023-01-12T09:15:25.036Z,5.79
2023-01-12T09:16:33.038Z,5.79
2023-01-12T09:17:38.449Z,5.80
2023-01-12T09:18:46.442Z,5.84
2023-01-12T09:19:52.195Z,5.89
2023-01-12T09:21:01.854Z,5.98
2023-01-12T09:22:07.017Z,5.94
2023-01-12T09:23:09.604Z,5.92
2023-01-12T09:24:18.222Z,5.97
2023-01-12T09:25:23.256Z,6.02
2023-01-12T09:26:31.965Z,6.02
2023-01-12T09:27:41.316Z,6.00
2023-01-12T09:28:44.836Z,6.04
2023-01-12T09:29:50.215Z,6.04
2023-01-12T09:30:52.438Z,6.04
2023-01-12T09:31:58.875Z,6.10
2023-01-12T09:33:01.363Z,6.07
2023-01-12T09:34:07.176Z,6.04
2023-01-12T09:35:13.300Z,6.03
2023-01-12T09:36:21.336Z,6.03
2023-01-12T09:37:23.904Z,5.99
2023-01-12T09:38:30.294Z,6.04
2023-01-12T09:39:35.804Z,6.11
2023-01-12T09:40:44.090Z,6.12
2023-01-12T09:42:03.996Z,6.10
2023-01-12T09:43:29.279Z,6.13
2023-01-12T09:44:50.870Z,6.03
2023-01-12T09:46:08.294Z,6.11
2023-01-12T09:47:21.647Z,6.07
2023-01-12T09:48:25.881Z,6.03
2023-01-12T09:49:37.053Z,6.07
2023-01-12T09:50:47.486Z,6.02
2023-01-12T09:51:59.012Z,6.04
2023-01-12T09:53:09.003Z,6.05
2023-01-12T09:54:11.669Z,6.10
2023-01-12T09:55:20.727Z,6.10
2023-01-12T09:56:29.931Z,6.04
2023-01-12T09:58:01.256Z,6.10
2023-01-12T09:59:23.955Z,6.03
2023-01-12T10:00:30.140Z,6.08
2023-01-12T10:01:41.585Z,6.05
2023-01-12T10:02:52.363Z,6.08
2023-01-12T10:03:57.659Z,6.12
2023-01-12T10:05:03.199Z,6.04
2023-01-12T10:06:14.203Z,6.05
2023-01-12T10:07:22.460Z,6.09
2023-01-12T10:08:31.324Z,6.09
2023-01-12T10:09:39.280Z,6.11
2023-01-12T10:10:50.329Z,6.13
2023-01-12T10:12:04.958Z,6.15
2023-01-12T10:13:14.577Z,6.16
2023-01-12T10:14:57.987Z,6.18
2023-01-12T10:16:15.101Z,6.26
2023-01-12T10:17:38.551Z,6.33
2023-01-12T10:18:51.323Z,6.16
2023-01-12T10:20:06.545Z,6.13
2023-01-12T10:21:15.077Z,6.19
2023-01-12T10:22:37.904Z,6.23
2023-01-12T10:23:42.749Z,6.27
2023-01-12T10:24:47.886Z,6.29
2023-01-12T10:25:54.964Z,6.26
2023-01-12T10:27:01.329Z,6.24
2023-01-12T10:28:10.838Z,6.26
2023-01-12T10:29:13.913Z,6.21
2023-01-12T10:30:22.158Z,6.28
2023-01-12T10:31:30.302Z,6.38
2023-01-12T10:32:41.478Z,6.31
2023-01-12T10:34:07.576Z,6.39
2023-01-12T10:35:37.888Z,6.37
2023-01-12T10:36:48.200Z,6.34
2023-01-12T10:37:57.700Z,6.45
2023-01-12T10:39:04.958Z,6.27
2023-01-12T10:40:30.754Z,6.35
2023-01-12T10:41:38.605Z,6.36
2023-01-12T10:43:12.327Z,6.31
2023-01-12T10:44:24.597Z,6.28
2023-01-12T10:45:30.413Z,6.36
2023-01-12T10:46:40.088Z,6.38
2023-01-12T10:48:05.481Z,6.42
2023-01-12T10:49:22.936Z,6.39
2023-01-12T10:50:36.708Z,6.42
2023-01-12T10:51:55.026Z,6.41
2023-01-12T10:53:05.973Z,6.33
2023-01-12T10:54:18.360Z,6.43
2023-01-12T10:55:22.441Z,6.43
2023-01-12T10:56:36.854Z,6.50
2023-01-12T10:57:44.827Z,6.42
2023-01-12T10:58:56.489Z,6.45
2023-01-12T11:00:03.261Z,6.41
2023-01-12T11:01:07.555Z,6.43
2023-01-12T11:02:20.782Z,6.58
2023-01-12T11:03:39.801Z,6.50
2023-01-12T11:04:46.888Z,6.56
2023-01-12T11:05:49.864Z,6.50
2023-01-12T11:07:06.689Z,6.53
2023-01-12T11:08:27.691Z,6.53
2023-01-12T11:09:35.699Z,6.50
2023-01-12T11:10:38.957Z,6.49
2023-01-12T11:11:45.274Z,6.60
2023-01-12T11:12:59.404Z,6.63
2023-01-12T11:14:10.327Z,6.59
2023-01-12T11:15:23.215Z,6.75
2023-01-12T11:16:26.561Z,6.71
2023-01-12T11:18:01.533Z,6.75
2023-01-12T11:19:21.946Z,6.71
2023-01-12T11:20:44.552Z,6.83
2023-01-12T11:30:08.390Z,6.71
2023-01-12T11:31:01.953Z,6.69
2023-01-12T11:31:25.401Z,6.88
2023-01-12T11:32:42.439Z,7.11
2023-01-12T11:33:55.094Z,7.16
2023-01-12T11:35:00.421Z,7.17
2023-01-12T11:36:10.118Z,7.30
2023-01-12T11:37:14.266Z,6.94
2023-01-12T11:38:22.762Z,6.89
2023-01-12T11:39:30.976Z,6.94
2023-01-12T11:40:38.695Z,6.93
2023-01-12T11:42:06.258Z,6.94
2023-01-12T11:43:36.126Z,6.95
2023-01-12T11:44:47.703Z,6.99
2023-01-12T11:45:56.661Z,6.83
2023-01-12T11:47:09.395Z,6.75
2023-01-12T11:48:20.730Z,6.76
2023-01-12T11:49:40.406Z,6.74
2023-01-12T11:50:49.043Z,6.72
2023-01-12T11:51:57.247Z,6.78
2023-01-12T11:53:06.716Z,6.82
2023-01-12T11:54:18.049Z,6.90
2023-01-12T11:55:30.413Z,6.81
2023-01-12T11:57:04.993Z,6.83
2023-01-12T11:58:18.359Z,6.80
2023-01-12T11:59:31.566Z,6.76
2023-01-12T12:01:19.726Z,6.82
2023-01-12T12:05:11.931Z,6.66
2023-01-12T12:06:39.434Z,6.72
2023-01-12T12:08:04.248Z,6.77
2023-01-12T12:09:47.573Z,6.87
2023-01-12T12:10:56.619Z,6.77
2023-01-12T12:12:07.487Z,6.86
2023-01-12T12:14:02.653Z,6.77
2023-01-12T12:15:53.730Z,6.81
2023-01-12T12:17:21.129Z,6.85
2023-01-12T12:18:48.762Z,6.88
2023-01-12T12:20:18.528Z,6.81
2023-01-12T12:22:12.564Z,6.85
2023-01-12T12:24:10.148Z,6.97
2023-01-12T12:27:32.039Z,6.88
2023-01-12T12:29:02.856Z,6.94
2023-01-12T12:30:36.469Z,6.85
2023-01-12T12:32:22.828Z,6.91
2023-01-12T12:35:06.032Z,6.98
2023-01-12T12:36:42.459Z,6.98
2023-01-12T12:38:17.092Z,7.10
2023-01-12T12:39:38.515Z,7.13
2023-01-12T12:41:18.086Z,7.11
2023-01-12T12:43:43.247Z,7.17
2023-01-12T12:45:27.758Z,7.32
2023-01-12T12:46:45.510Z,7.56
2023-01-12T12:48:02.296Z,7.47
2023-01-12T12:49:09.418Z,7.55
2023-01-12T12:50:23.890Z,7.57
2023-01-12T12:51:31.485Z,7.50
2023-01-12T12:52:34.995Z,7.63
2023-01-12T12:53:49.903Z,7.72
2023-01-12T12:54:58.404Z,7.60
2023-01-12T12:56:07.384Z,7.48
2023-01-12T12:57:12.909Z,7.42
2023-01-12T12:58:35.873Z,7.43
2023-01-12T13:00:00.318Z,7.58
2023-01-12T13:01:47.415Z,7.51
2023-01-12T13:03:00.560Z,7.41
2023-01-12T13:04:07.510Z,7.57
2023-01-12T13:05:13.803Z,7.54
2023-01-12T13:06:22.031Z,7.58
2023-01-12T13:07:28.856Z,7.67
2023-01-12T13:08:38.576Z,7.68
2023-01-12T13:09:46.793Z,7.67
2023-01-12T13:10:53.251Z,7.70
2023-01-12T13:12:20.740Z,7.63
2023-01-12T13:13:32.272Z,7.69
2023-01-12T13:14:36.446Z,7.54
2023-01-12T13:15:43.085Z,7.57
2023-01-12T13:16:55.052Z,7.55
2023-01-12T13:17:57.483Z,7.56
2023-01-12T13:19:16.291Z,7.53
2023-01-12T13:20:55.983Z,7.70
2023-01-12T13:22:20.461Z,7.78
2023-01-12T13:23:42.536Z,7.75
2023-01-12T13:24:50.571Z,7.86
2023-01-12T13:25:57.362Z,7.83
2023-01-12T13:27:02.618Z,7.81
2023-01-12T13:28:22.090Z,7.74
2023-01-12T13:30:06.201Z,7.81
2023-01-12T13:31:38.683Z,7.68
2023-01-12T13:33:02.251Z,7.87
2023-01-12T13:34:46.855Z,7.93
2023-01-12T13:37:59.396Z,7.70
2023-01-12T13:39:16.970Z,7.79
2023-01-12T13:40:33.991Z,7.82
2023-01-12T13:41:54.690Z,7.63
2023-01-12T13:43:14.318Z,7.60
2023-01-12T13:44:28.473Z,7.60
2023-01-12T13:45:35.282Z,7.65
2023-01-12T13:46:46.550Z,7.70
2023-01-12T13:47:57.437Z,7.73
2023-01-12T13:49:01.074Z,7.69
2023-01-12T13:50:07.310Z,7.71
2023-01-12T13:51:22.039Z,7.72
2023-01-12T13:52:29.269Z,7.74
2023-01-12T13:53:35.973Z,7.69
2023-01-12T13:54:52.409Z,7.58
2023-01-12T13:56:05.597Z,7.61
2023-01-12T13:57:19.628Z,7.60
2023-01-12T13:58:27.144Z,7.56
2023-01-12T13:59:35.585Z,7.53
2023-01-12T14:00:40.832Z,7.50
2023-01-12T14:01:46.132Z,7.53
2023-01-12T14:02:51.742Z,7.52
2023-01-12T14:04:19.528Z,7.52
2023-01-12T14:05:40.635Z,7.58
2023-01-12T14:06:56.872Z,7.59
2023-01-12T14:08:14.863Z,7.47
2023-01-12T14:09:30.828Z,7.52
2023-01-12T14:10:39.110Z,7.42
2023-01-12T14:12:08.203Z,7.39
2023-01-12T14:13:36.857Z,7.43
2023-01-12T14:15:30.246Z,7.34
2023-01-12T14:17:05.401Z,7.34
2023-01-12T14:18:15.559Z,7.36
2023-01-12T14:19:29.825Z,7.38
2023-01-12T14:20:40.566Z,7.38
2023-01-12T14:21:45.823Z,7.30
2023-01-12T14:22:48.457Z,7.30
2023-01-12T14:23:53.775Z,7.31
2023-01-12T14:25:16.715Z,7.26
2023-01-12T14:26:27.632Z,7.30
2023-01-12T14:27:33.116Z,7.32
2023-01-12T14:28:39.227Z,7.31
2023-01-12T14:29:46.098Z,7.39
2023-01-12T14:30:56.036Z,7.36
2023-01-12T14:32:04.087Z,7.25
2023-01-12T14:33:06.440Z,7.31
2023-01-12T14:34:26.680Z,7.23
2023-01-12T14:35:29.025Z,7.17
2023-01-12T14:36:38.979Z,7.19
2023-01-12T14:37:41.403Z,7.20
2023-01-12T14:38:47.689Z,7.19
2023-01-12T14:39:53.080Z,7.18
2023-01-12T14:41:04.996Z,7.14
2023-01-12T14:42:32.348Z,7.20
2023-01-12T14:43:52.563Z,7.14
2023-01-12T14:45:14.517Z,7.11
2023-01-12T14:46:30.718Z,7.12
2023-01-12T14:47:38.030Z,7.07
2023-01-12T14:48:44.062Z,7.08
2023-01-12T14:49:50.070Z,7.10
2023-01-12T14:51:03.958Z,7.10
2023-01-12T14:52:29.724Z,7.04
2023-01-12T14:53:36.621Z,7.07
2023-01-12T14:54:41.884Z,7.01
2023-01-12T14:55:49.152Z,7.11
2023-01-12T14:57:00.423Z,7.16
2023-01-12T14:58:06.963Z,7.10
2023-01-12T14:59:18.665Z,7.05
2023-01-12T15:00:26.985Z,7.05
2023-01-12T15:01:33.093Z,7.02
2023-01-12T15:02:41.914Z,7.04
2023-01-12T15:03:48.478Z,7.05
2023-01-12T15:04:56.894Z,7.09
2023-01-12T15:05:59.937Z,7.09
2023-01-12T15:07:11.085Z,7.08
2023-01-12T15:08:27.344Z,7.01
2023-01-12T15:09:34.191Z,7.05
2023-01-12T15:10:38.438Z,7.08
2023-01-12T15:11:43.771Z,7.10
2023-01-12T15:12:47.740Z,7.03
2023-01-12T15:14:01.145Z,7.01
2023-01-12T15:15:24.693Z,6.99
2023-01-12T15:16:42.062Z,6.94
2023-01-12T15:18:00.675Z,6.98
2023-01-12T15:19:18.069Z,6.94
2023-01-12T15:20:47.450Z,6.98
2023-01-12T15:22:04.723Z,7.01
2023-01-12T15:23:26.277Z,6.98
2023-01-12T15:24:46.067Z,6.94
2023-01-12T15:25:51.516Z,6.98
2023-01-12T15:27:05.809Z,6.95
2023-01-12T15:28:12.129Z,6.92
2023-01-12T15:29:14.805Z,6.99
2023-01-12T15:30:25.780Z,6.98
2023-01-12T15:31:31.526Z,6.98
2023-01-12T15:32:48.607Z,6.90
2023-01-12T15:33:54.008Z,6.92
2023-01-12T15:34:56.594Z,6.91
2023-01-12T15:36:01.802Z,6.91
2023-01-12T15:37:04.385Z,6.92
2023-01-12T15:38:09.672Z,6.89
2023-01-12T15:39:13.846Z,6.86
2023-01-12T15:40:20.087Z,6.91
2023-01-12T15:41:58.418Z,6.87
2023-01-12T15:43:05.664Z,6.91